Flight Track Log - Related Links

Times and Time Zones

All times are in EDT time to prevent confusion due to time zone crossing. See the UCA596 flight status page for this flight to view local times or setup timezone preferences in your user account.

Time Position Orientation Groundspeed Altitude Reporting Facility
EDT Latitude Longitude Course Direction KTS MPH feet Rate Location/Type
Sun 01:11:46 PM 38.9667 -77.4833 North 147 169 1,700  Level Potomac TRACON
Sun 01:12:40 PM 39.0000 -77.4833 360° North 177 204 3,200 1,750 Climbing Potomac TRACON
Sun 01:13:46 PM 39.0667 -77.4667 11° North 172 198 5,200 1,748 Climbing Potomac TRACON
Sun 01:14:47 PM 39.1000 -77.4667 360° North 171 197 6,900 1,513 Climbing Potomac TRACON
Sun 01:15:41 PM 39.1500 -77.4500 14° North 191 220 8,100 1,263 Climbing Potomac TRACON
Sun 01:16:41 PM 39.2000 -77.4500 360° North 187 215 9,300 1,350 Climbing Potomac TRACON
Sun 01:17:00 PM 39.5105 -77.4500 North  Level FlightAware Approximate
Sun 01:17:41 PM 39.2500 -77.4500 360° North 192 221 10,800  Level Potomac TRACON
Sun 01:19:40 PM 39.3594 -77.4597 356° North 201 231 13,300 1,347 Climbing Washington Center
Sun 01:21:46 PM 39.4858 -77.4589 360° North 200 230 16,300 1,355 Climbing New York Center
Sun 01:22:46 PM 39.5444 -77.4589 360° North 200 230 17,500 1,350 Climbing New York Center
Sun 01:23:46 PM 39.6008 -77.4536 North 200 230 19,000 750 Climbing New York Center
Sun 01:24:46 PM 39.6572 -77.4536 360° North 207 238 19,000  Level New York Center
Sun 01:25:46 PM 39.7325 -77.4525 North 237 273 19,000  Level New York Center
Sun 01:26:46 PM 39.7969 -77.4533 359° North 253 291 19,000  Level New York Center
Sun 01:27:46 PM 39.8783 -77.4531 360° North 258 297 19,000  Level New York Center
Sun 01:28:46 PM 39.9431 -77.4508 North 253 291 19,000  Level New York Center
Sun 01:29:46 PM 40.0228 -77.4069 23° Northeast 265 305 19,000  Level New York Center
Sun 01:30:46 PM 40.0875 -77.3697 24° Northeast 275 316 19,000  Level New York Center
Sun 01:31:46 PM 40.1669 -77.3258 23° Northeast 280 322 19,000  Level New York Center
Sun 01:32:46 PM 40.2317 -77.2883 24° Northeast 280 322 19,000  Level New York Center
Sun 01:33:46 PM 40.3092 -77.2439 24° Northeast 280 322 19,000  Level New York Center
Sun 01:34:46 PM 40.3736 -77.2064 24° Northeast 280 322 19,000  Level New York Center
Sun 01:35:46 PM 40.4533 -77.1592 24° Northeast 280 322 19,000  Level New York Center
Sun 01:36:46 PM 40.5200 -77.1217 23° Northeast 280 322 19,000  Level New York Center
Sun 01:37:46 PM 40.5997 -77.0744 24° Northeast 280 322 19,000  Level New York Center
Sun 01:38:46 PM 40.6664 -77.0339 25° Northeast 287 330 19,000  Level New York Center
Sun 01:39:46 PM 40.7394 -76.9914 24° Northeast 287 330 19,000  Level New York Center
Sun 01:40:46 PM 40.8128 -76.9486 24° Northeast 287 330 19,000 -500 Level New York Center
Sun 01:41:46 PM 40.8964 -76.9011 23° Northeast 294 338 18,000 -950 Descending New York Center
Sun 01:42:46 PM 40.9653 -76.8581 25° Northeast 294 338 17,100 -450 Descending New York Center
Sun 01:43:46 PM 41.0428 -76.8125 24° Northeast 294 338 17,100  Level New York Center
Sun 01:44:46 PM 41.1156 -76.7694 24° Northeast 294 338 17,100  Level New York Center
Sun 01:45:46 PM 41.1886 -76.7264 24° Northeast 294 338 17,100  Level New York Center
Sun 01:46:46 PM 41.2597 -76.6831 25° Northeast 287 330 17,100  Level New York Center
Sun 01:47:46 PM 41.3325 -76.6394 24° Northeast 287 330 17,100  Level New York Center
Sun 01:48:46 PM 41.4056 -76.5961 24° Northeast 287 330 17,100  Level New York Center
Sun 01:49:46 PM 41.4850 -76.5503 23° Northeast 281 323 17,100  Level New York Center
Sun 01:50:46 PM 41.5558 -76.5039 26° Northeast 281 323 17,100 -650 Level New York Center
Sun 01:51:46 PM 41.6331 -76.4578 24° Northeast 286 329 15,800 -1,300 Descending New York Center
Sun 01:52:46 PM 41.7017 -76.4164 24° Northeast 292 336 14,500 -1,450 Descending New York Center
Sun 01:53:46 PM 41.7853 -76.3678 23° Northeast 301 346 12,900 -1,750 Descending New York Center
Sun 01:54:46 PM 41.8539 -76.3233 26° Northeast 282 325 11,000 -1,800 Descending New York Center
Sun 01:55:46 PM 41.9208 -76.2706 30° Northeast 276 318 9,300 -1,800 Descending New York Center
Sun 01:56:46 PM 41.9778 -76.2111 38° Northeast 271 312 7,400 -1,950 Descending New York Center
Sun 01:57:46 PM 42.0300 -76.1594 36° Northeast 258 297 5,400 -1,600 Descending New York Center
Sun 01:58:46 PM 42.0814 -76.0825 48° Northeast 252 290 4,200 -900 Descending New York Center
Sun 01:59:46 PM 42.1139 -76.0069 60° Northeast 241 277 3,600 -450 Descending New York Center
Sun 02:00:46 PM 42.1500 -75.9456 52° Northeast 226 260 3,300 -550 Descending New York Center
Sun 02:01:46 PM 42.1922 -75.9319 13° North 169 194 2,500 -600 Descending New York Center
Sun 02:02:46 PM 42.2169 -75.9367 228° Southwest 123 142 2,100 3,250 Descending New York Center
Sun 02:03:00 PM 42.2084 -75.9796 287° West  Level Estimated
Sun 02:03:46 PM 42.2486 -75.9253 287° West 123 142 9,000  Level New York Center
Sun 02:04:46 PM 42.2803 -75.9136 15° North 123 142 9,000  Level New York Center
Sun 02:06:00 PM 42.2000 -75.9667 228° Southwest  Level FlightAware Approximate
Sun 02:08:00 PM 42.2000 -75.9667 236° Southwest  Level FlightAware Approximate
Sun 02:15:00 PM 42.2084 -75.9796 236° Southwest  Level Estimated
Sun 02:16:00 PM 42.2084 -75.9796 236° Southwest  Level Estimated
Sun 02:17:00 PM 42.2084 -75.9796 236° Southwest  Level Estimated
Sun 02:18:00 PM 42.2084 -75.9796 236° Southwest  Level Estimated
Sun 02:19:00 PM 42.2084 -75.9796 236° Southwest  Level Estimated

Login

Don't have an account? Register now (free) for customized features, flight alerts, and more!